createdAt,value
2018-01-07T00:00:37.390Z,13.05
2018-01-07T00:03:05.029Z,13.05
2018-01-07T00:05:32.707Z,11.65
2018-01-07T00:08:00.702Z,12.93
2018-01-07T00:10:28.777Z,13.40
2018-01-07T00:12:56.460Z,14.07
2018-01-07T00:15:24.117Z,13.10
2018-01-07T00:17:51.711Z,14.60
2018-01-07T00:20:19.548Z,15.25
2018-01-07T00:22:47.243Z,15.30
2018-01-07T00:25:15.353Z,15.50
2018-01-07T00:27:42.998Z,17.25
2018-01-07T00:30:10.576Z,15.23
2018-01-07T00:32:38.219Z,14.63
2018-01-07T00:35:05.921Z,13.82
2018-01-07T00:37:33.599Z,13.85
2018-01-07T00:40:01.306Z,13.93
2018-01-07T00:42:28.914Z,11.93
2018-01-07T00:44:56.511Z,12.02
2018-01-07T00:47:24.977Z,11.93
2018-01-07T00:49:53.475Z,12.35
2018-01-07T00:52:21.838Z,12.25
2018-01-07T00:54:49.490Z,14.07
2018-01-07T00:57:17.078Z,11.90
2018-01-07T00:59:45.650Z,13.50
2018-01-07T01:02:13.291Z,12.73
2018-01-07T01:04:40.894Z,13.55
2018-01-07T01:07:08.522Z,14.50
2018-01-07T01:09:36.132Z,13.50
2018-01-07T01:12:03.771Z,14.60
2018-01-07T01:14:31.391Z,14.32
2018-01-07T01:16:58.977Z,15.98
2018-01-07T01:19:26.593Z,14.90
2018-01-07T01:21:54.238Z,14.07
2018-01-07T01:24:21.833Z,13.80
2018-01-07T01:26:50.199Z,14.68
2018-01-07T01:29:17.825Z,13.70
2018-01-07T01:31:45.412Z,13.25
2018-01-07T01:34:13.029Z,13.88
2018-01-07T01:36:41.436Z,13.00
2018-01-07T01:39:09.080Z,12.98
2018-01-07T01:41:37.414Z,14.02
2018-01-07T01:44:05.029Z,12.43
2018-01-07T01:46:33.456Z,11.45
2018-01-07T01:49:13.012Z,11.85
2018-01-07T01:51:40.607Z,11.40
2018-01-07T01:54:08.972Z,11.98
2018-01-07T01:56:36.599Z,12.00
2018-01-07T01:59:04.241Z,11.65
2018-01-07T02:01:31.821Z,14.07
2018-01-07T02:03:59.480Z,12.55
2018-01-07T02:06:27.115Z,10.68
2018-01-07T02:08:54.756Z,11.93
2018-01-07T02:11:22.422Z,13.00
2018-01-07T02:13:50.025Z,12.63
2018-01-07T02:16:17.662Z,13.93
2018-01-07T02:18:45.276Z,13.00
2018-01-07T02:21:13.064Z,13.27
2018-01-07T02:23:40.712Z,12.63
2018-01-07T02:26:08.391Z,12.07
2018-01-07T02:28:36.023Z,12.77
2018-01-07T02:31:05.273Z,12.48
2018-01-07T02:33:32.947Z,11.50
2018-01-07T02:36:00.649Z,12.20
2018-01-07T02:38:28.400Z,12.50
2018-01-07T02:40:56.086Z,10.27
2018-01-07T02:43:23.753Z,10.40
2018-01-07T02:45:51.444Z,11.40
2018-01-07T02:48:19.094Z,11.68
2018-01-07T02:50:47.484Z,12.90
2018-01-07T02:53:15.970Z,10.32
2018-01-07T02:55:43.583Z,10.73
2018-01-07T02:58:11.183Z,11.80
2018-01-07T03:00:40.834Z,10.50
2018-01-07T03:03:08.421Z,10.57
2018-01-07T03:05:35.993Z,10.60
2018-01-07T03:08:03.631Z,11.35
2018-01-07T03:10:31.257Z,11.82
2018-01-07T03:12:58.829Z,11.88
2018-01-07T03:15:26.439Z,10.98
2018-01-07T03:17:54.022Z,10.55
2018-01-07T03:20:22.613Z,11.25
2018-01-07T03:22:50.188Z,9.77
2018-01-07T03:25:17.768Z,11.12
2018-01-07T03:27:45.381Z,10.10
2018-01-07T03:30:13.053Z,10.13
2018-01-07T03:32:40.672Z,9.40
2018-01-07T03:35:08.314Z,10.57
2018-01-07T03:37:35.936Z,11.40
2018-01-07T03:40:03.536Z,11.55
2018-01-07T03:42:37.412Z,11.55
2018-01-07T03:45:05.051Z,13.15
2018-01-07T03:47:33.420Z,12.40
2018-01-07T03:50:01.042Z,11.00
2018-01-07T03:52:28.624Z,10.77
2018-01-07T03:54:56.251Z,11.02
2018-01-07T03:57:23.874Z,12.02
2018-01-07T03:59:51.473Z,12.45
2018-01-07T04:02:19.870Z,11.80
2018-01-07T04:04:47.466Z,11.35
2018-01-07T04:07:18.588Z,11.20
2018-01-07T04:09:46.206Z,11.02
2018-01-07T04:12:13.824Z,11.27
2018-01-07T04:14:41.436Z,10.38
2018-01-07T04:17:09.062Z,11.63
2018-01-07T04:19:36.673Z,10.80
2018-01-07T04:22:04.325Z,11.10
2018-01-07T04:24:31.934Z,10.18
2018-01-07T04:26:59.591Z,9.40
2018-01-07T04:29:27.182Z,8.38
2018-01-07T04:31:54.768Z,9.15
2018-01-07T04:34:22.373Z,10.68
2018-01-07T04:36:49.966Z,9.55
2018-01-07T04:39:18.354Z,10.25
2018-01-07T04:41:45.956Z,10.25
2018-01-07T04:44:13.617Z,11.90
2018-01-07T04:46:41.200Z,11.40
2018-01-07T04:49:08.808Z,11.60
2018-01-07T04:51:38.172Z,10.55
2018-01-07T04:54:05.795Z,10.48
2018-01-07T04:56:33.390Z,10.05
2018-01-07T04:59:00.999Z,10.13
2018-01-07T05:01:29.407Z,11.75
2018-01-07T05:03:57.006Z,11.73
2018-01-07T05:06:24.636Z,12.90
2018-01-07T05:08:52.241Z,12.52
2018-01-07T05:11:19.898Z,13.70
2018-01-07T05:13:48.089Z,13.68
2018-01-07T05:16:16.794Z,11.70
2018-01-07T05:18:44.881Z,12.45
2018-01-07T05:21:12.476Z,12.02
2018-01-07T05:23:40.868Z,12.20
2018-01-07T05:26:08.478Z,12.13
2018-01-07T05:28:36.083Z,10.95
2018-01-07T05:31:04.489Z,11.48
2018-01-07T05:33:32.275Z,12.37
2018-01-07T05:35:59.935Z,11.20
2018-01-07T05:38:27.550Z,11.50
2018-01-07T05:40:55.133Z,11.40
2018-01-07T05:43:23.520Z,11.90
2018-01-07T05:45:51.870Z,12.10
2018-01-07T05:48:19.514Z,10.70
2018-01-07T05:50:47.168Z,10.90
2018-01-07T05:53:15.479Z,10.38
2018-01-07T05:55:43.083Z,11.45
2018-01-07T05:58:11.455Z,13.25
2018-01-07T06:00:39.841Z,14.30
2018-01-07T06:03:08.197Z,14.93
2018-01-07T06:05:35.859Z,18.83
2018-01-07T06:08:04.512Z,21.23
2018-01-07T06:10:32.158Z,22.85
2018-01-07T06:13:00.526Z,22.65
2018-01-07T06:15:28.906Z,24.08
2018-01-07T06:17:56.558Z,23.65
2018-01-07T06:20:24.193Z,24.50
2018-01-07T06:22:51.807Z,22.13
2018-01-07T06:25:20.195Z,26.45
2018-01-07T06:27:48.596Z,24.60
2018-01-07T06:30:16.974Z,25.23
2018-01-07T06:32:45.341Z,28.30
2018-01-07T06:35:12.959Z,26.42
2018-01-07T06:37:40.544Z,28.02
2018-01-07T06:40:08.175Z,24.92
2018-01-07T06:42:35.794Z,22.65
2018-01-07T06:45:03.483Z,27.58
2018-01-07T06:47:31.867Z,23.70
2018-01-07T06:50:00.234Z,27.00
2018-01-07T06:52:27.842Z,30.27
2018-01-07T06:54:55.488Z,22.98
2018-01-07T06:57:23.848Z,25.50
2018-01-07T06:59:51.446Z,28.60
2018-01-07T07:02:19.097Z,21.87
2018-01-07T07:04:47.469Z,27.60
2018-01-07T07:07:15.821Z,24.83
2018-01-07T07:09:43.464Z,27.27
2018-01-07T07:12:11.106Z,27.27
2018-01-07T07:14:39.484Z,28.08
2018-01-07T07:17:07.133Z,29.92
2018-01-07T07:19:34.773Z,29.55
2018-01-07T07:22:02.432Z,32.08
2018-01-07T07:24:30.066Z,29.50
2018-01-07T07:26:57.697Z,20.33
2018-01-07T07:29:26.063Z,21.42
2018-01-07T07:31:54.687Z,20.77
2018-01-07T07:34:22.308Z,20.05
2018-01-07T07:36:50.252Z,23.85
2018-01-07T07:39:17.866Z,21.73
2018-01-07T07:41:45.496Z,23.08
2018-01-07T07:44:13.286Z,22.30
2018-01-07T07:46:40.882Z,24.83
2018-01-07T07:49:09.238Z,21.95
2018-01-07T07:51:36.877Z,20.73
2018-01-07T07:54:05.237Z,21.75
2018-01-07T07:56:32.880Z,21.25
2018-01-07T07:59:00.527Z,22.52
2018-01-07T08:01:28.113Z,24.87
2018-01-07T08:03:56.478Z,19.23
2018-01-07T08:06:24.079Z,23.73
2018-01-07T08:08:51.675Z,21.23
2018-01-07T08:11:19.270Z,21.98
2018-01-07T08:13:47.659Z,20.90
2018-01-07T08:16:15.281Z,17.92
2018-01-07T08:18:43.684Z,20.75
2018-01-07T08:21:11.288Z,22.77
2018-01-07T08:23:39.675Z,23.73
2018-01-07T08:26:08.029Z,22.27
2018-01-07T08:28:35.645Z,20.83
2018-01-07T08:31:03.271Z,20.25
2018-01-07T08:33:30.869Z,24.30
2018-01-07T08:35:58.521Z,22.13
2018-01-07T08:38:26.906Z,21.27
2018-01-07T08:40:55.282Z,23.55
2018-01-07T08:43:23.678Z,24.70
2018-01-07T08:45:52.036Z,21.95
2018-01-07T08:48:19.654Z,22.98
2018-01-07T08:50:47.272Z,22.70
2018-01-07T08:53:14.933Z,21.52
2018-01-07T08:55:42.664Z,21.52
2018-01-07T08:58:10.328Z,20.88
2018-01-07T09:00:37.945Z,23.92
2018-01-07T09:03:06.355Z,21.58
2018-01-07T09:05:33.998Z,19.90
2018-01-07T09:08:01.628Z,19.65
2018-01-07T09:10:30.231Z,23.27
2018-01-07T09:12:57.855Z,21.00
2018-01-07T09:15:25.463Z,20.88
2018-01-07T09:17:53.090Z,19.90
2018-01-07T09:20:20.732Z,17.87
2018-01-07T09:22:49.126Z,17.10
2018-01-07T09:25:16.836Z,18.95
2018-01-07T09:27:44.482Z,18.08
2018-01-07T09:30:12.090Z,18.95
2018-01-07T09:32:40.722Z,20.62
2018-01-07T09:35:08.346Z,19.48
2018-01-07T09:37:35.967Z,16.87
2018-01-07T09:40:03.622Z,16.30
2018-01-07T09:42:31.247Z,18.17
2018-01-07T09:44:58.915Z,19.17
2018-01-07T09:47:26.572Z,20.52
2018-01-07T09:49:54.196Z,19.42
2018-01-07T09:52:21.839Z,18.77
2018-01-07T09:54:50.221Z,18.05
2018-01-07T09:57:17.992Z,19.20
2018-01-07T09:59:46.375Z,17.37
2018-01-07T10:02:14.898Z,18.90
2018-01-07T10:04:42.957Z,17.95
2018-01-07T10:07:10.607Z,15.75
2018-01-07T10:09:38.212Z,17.20
2018-01-07T10:12:05.858Z,15.27
2018-01-07T10:14:33.465Z,17.12
2018-01-07T10:17:01.081Z,16.70
2018-01-07T10:19:28.714Z,18.50
2018-01-07T10:21:56.380Z,19.98
2018-01-07T10:24:24.799Z,18.40
2018-01-07T10:26:52.408Z,17.08
2018-01-07T10:29:20.032Z,16.00
2018-01-07T10:31:47.636Z,16.42
2018-01-07T10:34:15.257Z,18.98
2018-01-07T10:36:42.919Z,19.50
2018-01-07T10:39:10.616Z,20.08
2018-01-07T10:41:38.714Z,18.27
2018-01-07T10:44:06.553Z,19.17
2018-01-07T10:46:34.171Z,18.70
2018-01-07T10:49:01.826Z,18.70
2018-01-07T10:51:29.460Z,18.48
2018-01-07T10:53:57.158Z,20.37
2018-01-07T10:56:24.983Z,20.10
2018-01-07T10:58:52.609Z,19.05
2018-01-07T11:01:25.944Z,20.73
2018-01-07T11:03:53.594Z,18.77
2018-01-07T11:06:21.976Z,19.75
2018-01-07T11:08:50.383Z,21.25
2018-01-07T11:11:18.043Z,18.73
2018-01-07T11:13:45.664Z,18.65
2018-01-07T11:16:13.294Z,18.92
2018-01-07T11:18:40.929Z,20.45
2018-01-07T11:21:09.309Z,19.65
2018-01-07T11:23:37.699Z,20.90
2018-01-07T11:26:06.067Z,17.12
2018-01-07T11:28:34.441Z,18.30
2018-01-07T11:31:02.843Z,18.70
2018-01-07T11:33:31.197Z,19.62
2018-01-07T11:35:58.818Z,21.17
2018-01-07T11:38:26.439Z,20.10
2018-01-07T11:40:54.071Z,16.92
2018-01-07T11:43:21.692Z,17.52
2018-01-07T11:45:50.092Z,19.83
2018-01-07T11:48:17.706Z,21.52
2018-01-07T11:50:45.311Z,21.12
2018-01-07T11:53:13.692Z,24.35
2018-01-07T11:55:41.311Z,19.80
2018-01-07T11:58:09.031Z,19.10
2018-01-07T12:00:36.860Z,17.67
2018-01-07T12:03:04.786Z,19.92
2018-01-07T12:05:32.639Z,22.00
2018-01-07T12:08:02.214Z,18.70
2018-01-07T12:10:30.031Z,20.20
2018-01-07T12:12:57.731Z,19.60
2018-01-07T12:15:25.344Z,19.77
2018-01-07T12:17:54.610Z,23.00
2018-01-07T12:20:22.196Z,21.05
2018-01-07T12:22:49.869Z,19.55
2018-01-07T12:25:17.508Z,21.35
2018-01-07T12:27:45.134Z,21.05
2018-01-07T12:30:12.750Z,20.33
2018-01-07T12:32:40.400Z,18.23
2018-01-07T12:35:08.032Z,22.08
2018-01-07T12:37:35.671Z,23.83
2018-01-07T12:40:03.306Z,20.80
2018-01-07T12:42:30.946Z,21.25
2018-01-07T12:44:58.578Z,20.55
2018-01-07T12:47:27.074Z,22.35
2018-01-07T12:49:54.749Z,18.98
2018-01-07T12:52:22.366Z,19.55
2018-01-07T12:54:54.842Z,17.98
2018-01-07T12:57:22.453Z,22.50
2018-01-07T12:59:51.014Z,24.08
2018-01-07T13:02:19.580Z,23.48
2018-01-07T13:04:47.480Z,24.63
2018-01-07T13:07:15.373Z,25.08
2018-01-07T13:09:44.210Z,28.62
2018-01-07T13:12:12.814Z,24.63
2018-01-07T13:14:40.522Z,26.50
2018-01-07T13:17:08.177Z,26.30
2018-01-07T13:19:36.725Z,27.80
2018-01-07T13:22:04.409Z,26.27
2018-01-07T13:24:32.055Z,27.75
2018-01-07T13:26:59.896Z,25.62
2018-01-07T13:29:27.616Z,26.70
2018-01-07T13:31:55.263Z,25.85
2018-01-07T13:34:23.050Z,29.20
2018-01-07T13:36:51.610Z,33.63
2018-01-07T13:39:19.237Z,29.63
2018-01-07T13:41:46.945Z,25.77
2018-01-07T13:44:14.574Z,20.62
2018-01-07T13:46:42.237Z,23.77
2018-01-07T13:49:10.917Z,23.58
2018-01-07T13:51:39.318Z,21.30
2018-01-07T13:54:07.228Z,21.77
2018-01-07T13:56:34.864Z,21.52
2018-01-07T13:59:02.545Z,20.52
2018-01-07T14:01:31.128Z,20.70
2018-01-07T14:03:59.996Z,19.23
2018-01-07T14:06:27.883Z,19.92
2018-01-07T14:08:55.992Z,16.80
2018-01-07T14:11:24.721Z,17.75
2018-01-07T14:13:54.066Z,19.87
2018-01-07T14:16:22.685Z,19.95
2018-01-07T14:18:50.812Z,17.77
2018-01-07T14:21:19.130Z,22.70
2018-01-07T14:23:47.259Z,19.15
2018-01-07T14:26:15.134Z,19.98
2018-01-07T14:28:43.830Z,21.65
2018-01-07T14:31:11.442Z,19.08
2018-01-07T14:33:39.364Z,22.35
2018-01-07T14:36:07.799Z,18.92
2018-01-07T14:38:35.425Z,20.40
2018-01-07T14:41:03.223Z,21.65
2018-01-07T14:43:30.907Z,18.58
2018-01-07T14:45:58.823Z,20.33
2018-01-07T14:48:26.841Z,17.05
2018-01-07T14:50:54.530Z,24.10
2018-01-07T14:53:22.153Z,23.10
2018-01-07T14:55:49.771Z,22.23
2018-01-07T14:58:17.419Z,22.62
2018-01-07T15:00:45.107Z,20.33
2018-01-07T15:03:12.735Z,21.55
2018-01-07T15:05:40.420Z,23.05
2018-01-07T15:08:08.034Z,24.92
2018-01-07T15:10:36.422Z,22.40
2018-01-07T15:13:04.800Z,21.30
2018-01-07T15:15:33.570Z,24.55
2018-01-07T15:18:01.974Z,23.55
2018-01-07T15:20:29.647Z,23.80
2018-01-07T15:22:58.030Z,19.37
2018-01-07T15:25:26.408Z,24.05
2018-01-07T15:27:54.066Z,24.85
2018-01-07T15:30:22.474Z,24.75
2018-01-07T15:32:50.078Z,21.65
2018-01-07T15:35:17.777Z,20.95
2018-01-07T15:37:46.899Z,25.60
2018-01-07T15:40:14.532Z,22.25
2018-01-07T15:42:42.155Z,23.05
2018-01-07T15:45:09.765Z,23.20
2018-01-07T15:47:37.395Z,24.33
2018-01-07T15:50:05.009Z,24.15
2018-01-07T15:52:32.663Z,21.40
2018-01-07T15:55:00.334Z,20.92
2018-01-07T15:57:27.956Z,22.65
2018-01-07T15:59:55.594Z,22.80
2018-01-07T16:02:23.346Z,22.20
2018-01-07T16:04:52.319Z,20.35
2018-01-07T16:07:20.167Z,21.33
2018-01-07T16:09:47.797Z,20.05
2018-01-07T16:12:16.208Z,20.67
2018-01-07T16:14:43.883Z,20.08
2018-01-07T16:17:11.492Z,21.70
2018-01-07T16:19:39.116Z,21.83
2018-01-07T16:22:08.079Z,18.87
2018-01-07T16:24:35.677Z,21.23
2018-01-07T16:27:03.449Z,21.67
2018-01-07T16:29:31.081Z,19.48
2018-01-07T16:31:59.748Z,21.85
2018-01-07T16:34:28.440Z,22.15
2018-01-07T16:36:57.198Z,21.48
2018-01-07T16:39:25.031Z,22.67
2018-01-07T16:41:52.809Z,22.40
2018-01-07T16:44:20.504Z,20.17
2018-01-07T16:46:48.154Z,22.87
2018-01-07T16:49:16.682Z,19.75
2018-01-07T16:51:44.956Z,20.48
2018-01-07T16:54:13.483Z,21.77
2018-01-07T16:56:41.905Z,20.42
2018-01-07T16:59:10.189Z,21.65
2018-01-07T17:01:38.473Z,21.73
2018-01-07T17:04:06.200Z,19.50
2018-01-07T17:06:35.044Z,18.50
2018-01-07T17:09:07.159Z,20.42
2018-01-07T17:11:38.903Z,18.92
2018-01-07T17:14:10.122Z,19.75
2018-01-07T17:16:40.234Z,18.87
2018-01-07T17:19:08.588Z,18.05
2018-01-07T17:21:36.709Z,18.48
2018-01-07T17:24:05.611Z,19.00
2018-01-07T17:26:34.437Z,17.87
2018-01-07T17:29:03.384Z,19.98
2018-01-07T17:31:31.320Z,19.02
2018-01-07T17:33:59.130Z,17.90
2018-01-07T17:36:27.095Z,19.25
2018-01-07T17:38:54.942Z,18.70
2018-01-07T17:41:23.463Z,20.25
2018-01-07T17:43:51.157Z,19.30
2018-01-07T17:46:18.848Z,18.00
2018-01-07T17:48:47.571Z,17.58
2018-01-07T17:51:17.193Z,17.30
2018-01-07T17:53:46.031Z,17.20
2018-01-07T17:56:15.552Z,18.08
2018-01-07T17:58:43.969Z,18.83
2018-01-07T18:01:12.070Z,20.65
2018-01-07T18:03:40.546Z,20.42
2018-01-07T18:06:08.616Z,22.55
2018-01-07T18:08:36.287Z,18.40
2018-01-07T18:11:04.015Z,19.25
2018-01-07T18:13:32.039Z,21.20
2018-01-07T18:15:59.765Z,19.92
2018-01-07T18:18:27.391Z,20.20
2018-01-07T18:20:55.246Z,21.52
2018-01-07T18:23:22.853Z,21.37
2018-01-07T18:25:51.547Z,24.83
2018-01-07T18:28:19.520Z,23.87
2018-01-07T18:30:47.236Z,23.92
2018-01-07T18:33:14.834Z,23.73
2018-01-07T18:35:42.640Z,23.15
2018-01-07T18:38:10.446Z,22.50
2018-01-07T18:40:38.049Z,22.33
2018-01-07T18:43:05.925Z,23.20
2018-01-07T18:45:33.619Z,23.50
2018-01-07T18:48:01.296Z,26.45
2018-01-07T18:50:28.985Z,24.80
2018-01-07T18:53:01.741Z,23.90
2018-01-07T18:55:30.449Z,24.75
2018-01-07T18:58:03.971Z,25.35
2018-01-07T19:00:31.959Z,24.50
2018-01-07T19:02:59.617Z,23.02
2018-01-07T19:05:27.220Z,23.85
2018-01-07T19:07:55.935Z,24.30
2018-01-07T19:10:26.286Z,23.10
2018-01-07T19:12:53.991Z,23.50
2018-01-07T19:15:22.770Z,22.52
2018-01-07T19:17:50.686Z,23.98
2018-01-07T19:20:18.512Z,22.35
2018-01-07T19:22:46.955Z,20.85
2018-01-07T19:25:14.629Z,21.45
2018-01-07T19:27:42.322Z,20.27
2018-01-07T19:30:10.488Z,21.90
2018-01-07T19:32:38.401Z,19.35
2018-01-07T19:35:06.049Z,18.60
2018-01-07T19:37:33.669Z,18.02
2018-01-07T19:40:02.611Z,19.35
2018-01-07T19:42:30.211Z,18.12
2018-01-07T19:44:58.591Z,17.95
2018-01-07T19:47:27.065Z,17.67
2018-01-07T19:49:56.018Z,18.87
2018-01-07T19:52:23.725Z,19.25
2018-01-07T19:54:52.602Z,19.12
2018-01-07T19:57:20.829Z,18.00
2018-01-07T19:59:48.528Z,17.58
2018-01-07T20:02:16.446Z,18.02
2018-01-07T20:04:44.105Z,18.30
2018-01-07T20:07:11.848Z,19.15
2018-01-07T20:09:39.504Z,18.48
2018-01-07T20:12:07.850Z,19.17
2018-01-07T20:14:35.572Z,17.55
2018-01-07T20:17:03.214Z,17.65
2018-01-07T20:19:30.992Z,19.75
2018-01-07T20:21:58.636Z,17.37
2018-01-07T20:24:27.939Z,21.23
2018-01-07T20:26:56.950Z,18.92
2018-01-07T20:29:24.581Z,19.27
2018-01-07T20:31:57.154Z,18.10
2018-01-07T20:34:24.830Z,19.33
2018-01-07T20:36:52.467Z,20.10
2018-01-07T20:39:20.061Z,19.75
2018-01-07T20:41:48.545Z,19.90
2018-01-07T20:44:16.157Z,22.85
2018-01-07T20:46:43.800Z,20.35
2018-01-07T20:49:11.491Z,22.25
2018-01-07T20:51:39.179Z,20.02
2018-01-07T20:54:06.847Z,20.83
2018-01-07T20:56:34.510Z,20.92
2018-01-07T20:59:02.154Z,22.55
2018-01-07T21:01:30.392Z,23.12
2018-01-07T21:03:58.558Z,22.02
2018-01-07T21:06:27.346Z,22.42
2018-01-07T21:08:55.344Z,23.00
2018-01-07T21:11:23.064Z,23.85
2018-01-07T21:13:51.222Z,24.23
2018-01-07T21:16:18.909Z,22.83
2018-01-07T21:18:46.545Z,25.30
2018-01-07T21:21:15.500Z,24.12
2018-01-07T21:23:43.493Z,23.45
2018-01-07T21:26:11.339Z,24.70
2018-01-07T21:28:39.076Z,21.95
2018-01-07T21:31:07.050Z,22.90
2018-01-07T21:33:35.015Z,23.20
2018-01-07T21:36:03.031Z,23.62
2018-01-07T21:38:30.876Z,25.70
2018-01-07T21:40:59.957Z,26.37
2018-01-07T21:43:27.944Z,26.30
2018-01-07T21:45:56.264Z,26.27
2018-01-07T21:48:24.580Z,28.45
2018-01-07T21:50:53.506Z,24.55
2018-01-07T21:53:26.697Z,24.50
2018-01-07T21:55:54.875Z,25.23
2018-01-07T21:58:23.342Z,25.00
2018-01-07T22:01:03.280Z,25.25
2018-01-07T22:03:42.878Z,24.98
2018-01-07T22:06:28.984Z,26.58
2018-01-07T22:11:47.993Z,26.80
2018-01-07T22:14:19.579Z,25.23
2018-01-07T22:16:48.526Z,25.27
2018-01-07T22:19:16.221Z,27.80
2018-01-07T22:21:43.918Z,27.42
2018-01-07T22:24:11.537Z,24.20
2018-01-07T22:26:41.204Z,28.52
2018-01-07T22:29:10.235Z,26.95
2018-01-07T22:31:38.254Z,25.02
2018-01-07T22:34:05.926Z,26.60
2018-01-07T22:36:33.896Z,27.65
2018-01-07T22:39:01.992Z,26.02
2018-01-07T22:41:33.459Z,24.27
2018-01-07T22:44:03.045Z,25.67
2018-01-07T22:46:30.813Z,26.33
2018-01-07T22:48:59.292Z,24.90
2018-01-07T22:51:26.929Z,26.95
2018-01-07T22:53:55.594Z,27.58
2018-01-07T22:56:24.222Z,25.55
2018-01-07T22:58:52.661Z,27.83
2018-01-07T23:01:21.059Z,27.10
2018-01-07T23:03:49.786Z,26.62
2018-01-07T23:06:17.755Z,26.87
2018-01-07T23:08:45.422Z,26.77
2018-01-07T23:11:13.137Z,28.60
2018-01-07T23:13:41.833Z,27.23
2018-01-07T23:16:09.589Z,28.75
2018-01-07T23:18:39.081Z,26.05
2018-01-07T23:21:06.728Z,25.35
2018-01-07T23:23:34.554Z,24.70
2018-01-07T23:26:02.199Z,29.63
2018-01-07T23:28:30.048Z,27.13
2018-01-07T23:30:57.686Z,26.55
2018-01-07T23:33:25.298Z,27.83
2018-01-07T23:35:52.963Z,28.42
2018-01-07T23:38:21.428Z,25.27
2018-01-07T23:40:49.067Z,27.35
2018-01-07T23:43:16.704Z,26.73
2018-01-07T23:45:44.370Z,25.92
2018-01-07T23:48:12.764Z,27.23
2018-01-07T23:50:40.393Z,28.67
2018-01-07T23:53:08.008Z,26.48
2018-01-07T23:55:35.642Z,26.62
2018-01-07T23:58:03.212Z,24.52
